TGH weather

Tongoa Airport
Tongoa Island, Shefa, Vanuatu

Public forecast

Using degrees Celsius for public forecast. Weather courtesy of forecast.io.

Closest aviation weather report (METAR) to Tongoa Airport

Report is more than 2 hours old.

Closest report is Lamap Airport, 48.9 nm (90.5 km) WNW. Retrieved 2019/12/15 15:00 UTC (6 hours ago):

NVSL 151500Z AUTO

Closest aviation forecast (TAF) to Tongoa Airport

Closest forecast is Lamap Airport, 48.9 nm (90.5 km) WNW. Retrieved 2019/12/15 18:06 UTC (3 hours ago):

TAF NVSL 151600Z 1518/1618 VRB02KT 9999 SCT020 PROB30 INTER 1518/1524 9000 -SHRA BKN018